Time;durP1;ratioP1;P1;durP2;ratioP2;P2;SDS_P1;SDS_P2;PMS_P1;PMS_P2;Temp;Humidity;BMP_temperature;BMP_pressure;BME280_temperature;BME280_humidity;BME280_pressure;Samples;Min_cycle;Max_cycle;Signal;HPM_P1;HPM_P2
2022/08/17 00:00:12;;;;;;;24.98;17.50;;;;;;;23.51;72.09;100835.63;5091299;28;20033;-51
2022/08/17 00:03:09;;;;;;;19.83;16.95;;;;;;;23.49;71.98;100833.19;5079206;28;20085;-52
2022/08/17 00:05:42;;;;;;;20.40;18.20;;;;;;;23.49;72.14;100835.19;5091899;28;20093;-52
2022/08/17 00:08:11;;;;;;;24.77;18.67;;;;;;;23.46;72.44;100825.56;5092389;28;20036;-51
2022/08/17 00:10:40;;;;;;;20.60;18.17;;;;;;;23.35;73.07;100832.81;5092763;28;20048;-50
2022/08/17 00:13:11;;;;;;;25.15;17.92;;;;;;;23.34;73.18;100823.66;5074066;28;20040;-50
2022/08/17 00:15:39;;;;;;;21.83;17.67;;;;;;;23.32;73.28;100820.41;5091671;28;20040;-51
2022/08/17 00:18:07;;;;;;;29.42;18.67;;;;;;;23.32;73.15;100814.88;5073215;28;20036;-52
2022/08/17 00:20:56;;;;;;;24.42;17.85;;;;;;;23.34;73.17;100812.53;5092519;28;20032;-51
2022/08/17 00:23:24;;;;;;;24.25;19.15;;;;;;;23.32;73.08;100808.50;5079487;28;20498;-51
2022/08/17 00:25:53;;;;;;;22.42;18.33;;;;;;;23.27;73.62;100817.09;5095581;28;20392;-50
2022/08/17 00:28:20;;;;;;;26.75;18.30;;;;;;;23.22;73.75;100809.81;5095980;28;20058;-50
2022/08/17 00:30:50;;;;;;;23.05;18.58;;;;;;;23.20;73.87;100812.13;5096079;28;20050;-50
2022/08/17 00:33:26;;;;;;;25.48;18.38;;;;;;;23.21;73.74;100813.78;5078535;28;20039;-52
2022/08/17 00:35:54;;;;;;;19.80;15.35;;;;;;;23.25;73.88;100809.09;5077409;28;20047;-51
2022/08/17 00:38:23;;;;;;;23.20;18.00;;;;;;;23.27;73.54;100804.00;5078303;28;20084;-50
2022/08/17 00:40:53;;;;;;;22.90;18.40;;;;;;;23.26;73.42;100799.63;5078153;28;20044;-51
2022/08/17 00:43:41;;;;;;;23.63;18.38;;;;;;;23.25;73.29;100791.63;5096151;28;20494;-50
2022/08/17 00:46:41;;;;;;;25.83;19.55;;;;;;;23.24;73.39;100788.03;5095054;28;20043;-50
2022/08/17 00:49:10;;;;;;;23.83;17.05;;;;;;;23.25;73.54;100786.88;5071001;28;20410;-53
2022/08/17 00:51:43;;;;;;;23.38;18.27;;;;;;;23.26;73.13;100782.94;5077325;28;20109;-51
2022/08/17 00:54:14;;;;;;;20.65;16.40;;;;;;;23.26;73.32;100777.38;5076976;28;20043;-50
2022/08/17 00:57:10;;;;;;;19.60;16.23;;;;;;;23.30;72.59;100789.38;5077809;28;20036;-50
2022/08/17 00:59:41;;;;;;;23.25;17.35;;;;;;;23.28;72.99;100783.41;5064381;28;20455;-52
2022/08/17 01:02:12;;;;;;;22.75;18.80;;;;;;;23.25;73.14;100786.88;5047996;28;20399;-50
2022/08/17 01:04:42;;;;;;;20.10;15.55;;;;;;;23.24;73.23;100779.69;5066469;28;20051;-50
2022/08/17 01:07:11;;;;;;;23.02;18.50;;;;;;;23.24;73.41;100788.03;5094360;28;20044;-50
2022/08/17 01:09:39;;;;;;;29.05;19.17;;;;;;;23.21;73.34;100785.16;5095229;28;20452;-52
2022/08/17 01:12:09;;;;;;;19.17;15.68;;;;;;;23.16;73.65;100783.44;5077794;28;20043;-52
2022/08/17 01:14:38;;;;;;;25.02;19.73;;;;;;;23.16;73.59;100778.69;5075697;28;20040;-48
2022/08/17 01:17:06;;;;;;;21.65;18.17;;;;;;;23.13;73.82;100779.38;5093408;28;20036;-51
2022/08/17 01:19:38;;;;;;;24.00;19.10;;;;;;;23.10;73.80;100782.88;5095534;28;20052;-52
2022/08/17 01:22:11;;;;;;;26.63;18.63;;;;;;;23.09;73.83;100777.66;5077786;28;20047;-51
2022/08/17 01:24:46;;;;;;;27.13;19.95;;;;;;;23.06;74.08;100767.28;5094454;28;20036;-53
2022/08/17 01:27:15;;;;;;;22.48;17.73;;;;;;;23.05;74.06;100765.66;5076845;28;20036;-51
2022/08/17 01:29:48;;;;;;;25.40;17.25;;;;;;;23.04;73.85;100769.59;5095174;28;20040;-50
2022/08/17 01:32:16;;;;;;;25.00;18.17;;;;;;;23.05;73.95;100768.44;5076892;28;20039;-50
2022/08/17 01:34:45;;;;;;;19.90;16.70;;;;;;;23.04;73.78;100755.69;5075615;28;20067;-48
2022/08/17 01:37:19;;;;;;;23.17;18.88;;;;;;;23.06;73.75;100761.72;5077357;28;20074;-52
2022/08/17 01:39:55;;;;;;;22.13;17.33;;;;;;;23.07;73.65;100757.78;5095198;28;20138;-50
2022/08/17 01:42:29;;;;;;;23.30;17.17;;;;;;;23.08;73.57;100756.59;5078322;28;20032;-49
2022/08/17 01:45:04;;;;;;;24.88;18.20;;;;;;;23.11;73.50;100758.66;5095717;28;20506;-54
2022/08/17 01:47:32;;;;;;;20.42;15.73;;;;;;;23.09;73.40;100755.44;5094642;28;21792;-55
2022/08/17 01:50:08;;;;;;;25.30;19.30;;;;;;;23.09;73.18;100749.88;5082335;28;20039;-55
2022/08/17 01:52:36;;;;;;;25.45;18.60;;;;;;;23.06;73.36;100747.81;5100536;28;20044;-54
2022/08/17 01:55:04;;;;;;;24.73;17.50;;;;;;;23.05;73.55;100749.00;5078721;28;20047;-54
2022/08/17 01:57:32;;;;;;;19.52;17.42;;;;;;;23.04;73.42;100755.69;5076681;28;20467;-55
2022/08/17 02:00:00;;;;;;;21.83;17.85;;;;;;;23.02;73.45;100755.22;5094735;28;20048;-53
2022/08/17 02:02:27;;;;;;;21.30;16.40;;;;;;;23.02;73.62;100766.34;5076764;28;20051;-54
2022/08/17 02:04:58;;;;;;;22.48;16.88;;;;;;;23.01;73.64;100759.19;5094600;28;20051;-53
2022/08/17 02:07:26;;;;;;;21.80;18.23;;;;;;;22.99;73.55;100755.94;5076587;28;20586;-55
2022/08/17 02:09:54;;;;;;;26.00;19.38;;;;;;;22.94;74.08;100759.75;5094789;28;20055;-54
2022/08/17 02:12:22;;;;;;;20.77;17.98;;;;;;;22.89;74.34;100760.00;5094002;28;20494;-54
2022/08/17 02:15:07;;;;;;;23.42;18.60;;;;;;;22.85;74.19;100756.31;5081003;28;20443;-53
2022/08/17 02:17:35;;;;;;;22.40;18.00;;;;;;;22.78;74.52;100748.59;5093866;28;20047;-53
2022/08/17 02:20:04;;;;;;;23.42;19.02;;;;;;;22.75;74.76;100750.13;5094191;28;20040;-52
2022/08/17 02:22:31;;;;;;;23.52;19.88;;;;;;;22.71;75.07;100751.19;5093817;28;20071;-52
2022/08/17 02:25:01;;;;;;;24.33;19.10;;;;;;;22.69;75.10;100742.38;5093126;28;20075;-51
2022/08/17 02:27:29;;;;;;;22.13;19.48;;;;;;;22.63;75.31;100750.13;5075691;28;20490;-51
2022/08/17 02:29:57;;;;;;;23.27;19.52;;;;;;;22.62;75.37;100747.72;5093950;28;20032;-50
2022/08/17 02:32:25;;;;;;;24.38;19.83;;;;;;;22.59;75.54;100743.69;5093385;28;20544;-52
2022/08/17 02:34:56;;;;;;;21.13;17.58;;;;;;;22.54;75.74;100741.16;5075454;28;20068;-48
2022/08/17 02:37:25;;;;;;;23.67;18.92;;;;;;;22.55;75.66;100740.00;5074249;28;20058;-48
2022/08/17 02:39:55;;;;;;;21.65;19.23;;;;;;;22.50;75.92;100741.03;5093356;28;20048;-54
2022/08/17 02:42:28;;;;;;;23.50;18.00;;;;;;;22.48;76.17;100748.91;5093757;28;20448;-54
2022/08/17 02:44:56;;;;;;;19.88;17.17;;;;;;;22.43;76.38;100735.28;5093361;28;20044;-53
2022/08/17 02:47:24;;;;;;;25.48;18.88;;;;;;;22.40;76.64;100743.50;5092487;28;20476;-55
2022/08/17 02:49:52;;;;;;;22.30;17.35;;;;;;;22.40;76.78;100746.28;5075438;28;20040;-51
2022/08/17 02:52:24;;;;;;;22.45;19.40;;;;;;;22.38;76.70;100737.50;5075877;28;20042;-51
2022/08/17 02:55:19;;;;;;;19.73;15.82;;;;;;;22.35;77.11;100733.44;5072646;28;20040;-53
2022/08/17 02:57:48;;;;;;;22.70;18.15;;;;;;;22.38;76.83;100729.16;5092407;28;20055;-49
2022/08/17 03:00:24;;;;;;;21.75;17.90;;;;;;;22.40;76.52;100724.88;5075313;28;20044;-50
2022/08/17 03:02:52;;;;;;;22.83;18.67;;;;;;;22.42;76.49;100730.09;5075773;28;20051;-47
2022/08/17 03:05:23;;;;;;;23.05;18.83;;;;;;;22.40;76.63;100724.06;5091159;28;20036;-51
2022/08/17 03:07:51;;;;;;;25.65;17.50;;;;;;;22.43;76.52;100728.91;5076020;28;20048;-48
2022/08/17 03:10:20;;;;;;;23.67;18.70;;;;;;;22.44;76.44;100720.25;5075170;28;20036;-49
2022/08/17 03:12:48;;;;;;;23.35;17.15;;;;;;;22.46;76.33;100728.22;5075549;28;20523;-49
2022/08/17 03:15:20;;;;;;;21.67;16.95;;;;;;;22.47;76.22;100725.09;5091024;28;20097;-52
2022/08/17 03:17:49;;;;;;;25.40;18.38;;;;;;;22.45;76.17;100732.97;5075152;28;20388;-51
2022/08/17 03:20:17;;;;;;;23.65;19.25;;;;;;;22.42;76.40;100730.91;5093140;28;20058;-50
2022/08/17 03:22:47;;;;;;;25.92;21.00;;;;;;;22.36;76.88;100735.06;5091634;28;20043;-50
2022/08/17 03:25:32;;;;;;;25.33;18.63;;;;;;;22.28;77.39;100728.50;5075701;28;20061;-50
2022/08/17 03:28:01;;;;;;;24.25;18.67;;;;;;;22.28;77.59;100727.69;5075156;28;20274;-51
2022/08/17 03:30:29;;;;;;;28.55;18.95;;;;;;;22.29;77.42;100738.41;5058879;28;20154;-50
2022/08/17 03:32:59;;;;;;;22.25;18.63;;;;;;;22.26;77.66;100736.34;5042096;28;20040;-49
2022/08/17 03:35:29;;;;;;;21.77;16.73;;;;;;;22.16;78.17;100736.81;5092525;28;20059;-48
2022/08/17 03:37:58;;;;;;;23.98;18.25;;;;;;;22.16;77.94;100724.91;5074140;28;20059;-47
2022/08/17 03:40:28;;;;;;;18.70;16.63;;;;;;;22.08;78.63;100721.91;5093068;28;20117;-49
2022/08/17 03:43:16;;;;;;;22.75;17.10;;;;;;;22.05;78.91;100724.53;5076915;28;20122;-49
2022/08/17 03:57:05;;;;;;;23.48;19.52;;;;;;;21.96;79.73;100724.69;5073670;28;20039;-48
2022/08/17 03:59:33;;;;;;;21.50;19.00;;;;;;;22.03;79.42;100726.84;5093596;28;20032;-49
2022/08/17 04:02:12;;;;;;;24.60;19.35;;;;;;;22.02;79.41;100731.59;5095595;28;20032;-53
2022/08/17 04:04:40;;;;;;;24.17;18.85;;;;;;;21.97;79.96;100742.94;5077670;28;20048;-47
2022/08/17 04:07:08;;;;;;;26.02;20.15;;;;;;;21.91;80.19;100728.50;5094957;28;20040;-48
2022/08/17 04:09:35;;;;;;;26.17;20.70;;;;;;;21.82;80.87;100729.78;5075884;28;20089;-47
2022/08/17 04:12:04;;;;;;;25.85;21.83;;;;;;;21.84;81.05;100738.53;5094987;28;20052;-49
2022/08/17 04:14:35;;;;;;;28.67;22.02;;;;;;;21.79;81.36;100736.81;5095896;28;20041;-50
2022/08/17 04:17:22;;;;;;;25.95;22.48;;;;;;;21.83;81.27;100734.97;5080541;28;20132;-47
2022/08/17 04:19:50;;;;;;;29.98;22.90;;;;;;;21.75;82.19;100743.41;5077801;28;20036;-47
2022/08/17 04:22:17;;;;;;;24.00;21.50;;;;;;;21.76;82.11;100751.38;5096304;28;20040;-48
2022/08/17 04:25:03;;;;;;;25.48;21.02;;;;;;;21.86;81.55;100750.94;5088049;28;20047;-48
2022/08/17 04:27:31;;;;;;;28.42;20.88;;;;;;;21.97;81.11;100759.59;5095791;28;20055;-52
2022/08/17 04:29:59;;;;;;;27.13;21.40;;;;;;;22.00;80.75;100756.09;5095363;28;20044;-49
2022/08/17 04:32:27;;;;;;;27.50;23.30;;;;;;;21.91;81.30;100760.97;5095597;28;20040;-51
2022/08/17 04:35:22;;;;;;;25.92;23.13;;;;;;;21.74;82.30;100761.19;5094918;28;20085;-49
2022/08/17 04:37:50;;;;;;;27.67;23.27;;;;;;;21.66;83.03;100772.03;5096135;28;20452;-52
2022/08/17 04:43:11;;;;;;;25.30;22.60;;;;;;;21.66;83.28;100794.22;5082371;28;20028;-53
2022/08/17 04:45:48;;;;;;;28.17;22.77;;;;;;;21.68;83.42;100802.22;5076735;28;20040;-50
2022/08/17 04:48:49;;;;;;;27.73;21.60;;;;;;;21.63;83.76;100802.44;5091746;28;20044;-53
2022/08/17 04:51:20;;;;;;;26.42;21.55;;;;;;;21.61;83.88;100788.91;5096210;28;20043;-57
2022/08/17 04:53:51;;;;;;;26.05;23.25;;;;;;;21.66;83.84;100780.34;5078434;28;20036;-56
2022/08/17 04:56:23;;;;;;;30.05;22.92;;;;;;;21.64;83.93;100776.31;5094507;28;20028;-52
2022/08/17 04:58:53;;;;;;;27.92;21.58;;;;;;;21.63;83.97;100786.59;5077216;28;20071;-54
2022/08/17 05:01:23;;;;;;;30.23;23.25;;;;;;;21.62;84.16;100801.63;5095893;28;20036;-52
2022/08/17 05:03:57;;;;;;;26.55;20.98;;;;;;;21.64;84.11;100804.03;5095604;28;20042;-53
2022/08/17 05:06:27;;;;;;;19.52;16.45;;;;;;;21.72;83.76;100805.09;5094972;28;20067;-49
2022/08/17 05:08:56;;;;;;;27.55;20.23;;;;;;;21.81;83.37;100830.78;5076096;28;20051;-50
2022/08/17 05:11:25;;;;;;;23.23;17.85;;;;;;;21.87;82.91;100826.63;5093731;28;20032;-48
2022/08/17 05:13:54;;;;;;;26.45;19.25;;;;;;;21.91;82.61;100813.66;5095313;28;20040;-52
2022/08/17 05:16:22;;;;;;;22.95;18.95;;;;;;;21.86;82.74;100795.31;5095058;28;20498;-50
2022/08/17 05:18:51;;;;;;;22.45;17.30;;;;;;;21.84;82.93;100813.44;5093316;28;20398;-51
2022/08/17 05:21:21;;;;;;;21.05;16.20;;;;;;;21.86;83.00;100820.28;5095438;28;20096;-51
2022/08/17 05:23:49;;;;;;;22.98;19.95;;;;;;;21.82;83.40;100813.00;5077189;28;20452;-49
2022/08/17 05:26:26;;;;;;;21.70;16.58;;;;;;;21.73;83.94;100832.50;5094730;28;20529;-52
2022/08/17 05:28:57;;;;;;;23.38;17.80;;;;;;;21.81;83.58;100833.53;5093879;28;20137;-53
2022/08/17 05:31:29;;;;;;;19.65;14.95;;;;;;;21.86;83.07;100828.59;5095236;28;20061;-50
2022/08/17 05:33:57;;;;;;;24.25;18.80;;;;;;;21.92;82.75;100820.84;5076995;28;20084;-51
2022/08/17 05:36:25;;;;;;;21.27;16.33;;;;;;;21.94;82.50;100824.09;5057553;28;20057;-50
2022/08/17 05:39:12;;;;;;;21.58;18.98;;;;;;;21.92;82.57;100815.31;5073097;28;20044;-49
2022/08/17 05:41:47;;;;;;;30.33;19.92;;;;;;;21.84;83.15;100796.78;5076133;28;20032;-54
2022/08/17 05:44:15;;;;;;;21.90;17.30;;;;;;;21.77;83.56;100802.09;5089357;28;20040;-53
2022/08/17 05:46:47;;;;;;;22.30;16.35;;;;;;;21.75;83.81;100805.22;5094202;28;20032;-51
2022/08/17 05:49:25;;;;;;;21.67;16.38;;;;;;;21.82;83.32;100801.91;5073637;28;20071;-50
2022/08/17 05:51:54;;;;;;;20.33;16.35;;;;;;;21.90;82.70;100804.53;5078079;28;20040;-50
2022/08/17 05:54:56;;;;;;;20.40;17.40;;;;;;;21.90;82.63;100798.19;5092442;28;20490;-48
2022/08/17 05:57:59;;;;;;;20.10;16.90;;;;;;;21.87;82.94;100785.03;5059749;28;20047;-51
2022/08/17 06:00:37;;;;;;;17.85;15.43;;;;;;;21.83;83.40;100779.34;5051166;28;20105;-54
2022/08/17 06:03:42;;;;;;;21.08;17.42;;;;;;;21.80;83.68;100784.78;5077530;28;20088;-53
2022/08/17 06:06:10;;;;;;;21.65;17.25;;;;;;;21.77;83.81;100780.75;5086896;28;20510;-54
2022/08/17 06:08:50;;;;;;;22.08;18.48;;;;;;;21.79;83.83;100777.59;5093389;28;20101;-50
2022/08/17 06:11:26;;;;;;;22.15;17.17;;;;;;;21.80;83.78;100782.00;5093123;28;20048;-54
2022/08/17 06:14:26;;;;;;;21.08;17.30;;;;;;;21.84;83.41;100780.16;5059642;28;20051;-56
2022/08/17 06:17:00;;;;;;;18.35;15.65;;;;;;;21.84;83.29;100797.63;5088956;28;20056;-54
2022/08/17 06:19:40;;;;;;;25.13;18.27;;;;;;;21.84;83.31;100797.63;5075659;28;20051;-53
2022/08/17 06:22:11;;;;;;;24.15;19.55;;;;;;;21.84;83.08;100799.56;5075690;28;20044;-50
2022/08/17 06:25:02;;;;;;;22.50;17.95;;;;;;;21.70;83.60;100797.13;5075725;28;20089;-49
2022/08/17 06:27:50;;;;;;;21.50;18.25;;;;;;;21.67;83.75;100806.97;5063709;28;20047;-52
2022/08/17 06:30:24;;;;;;;23.52;19.40;;;;;;;21.76;83.88;100808.81;5075616;28;20039;-54
2022/08/17 06:32:54;;;;;;;29.92;20.55;;;;;;;21.76;83.42;100806.03;5060841;28;20437;-52
2022/08/17 06:35:31;;;;;;;27.60;20.77;;;;;;;21.76;83.41;100808.81;5092842;28;20411;-53
2022/08/17 06:38:03;;;;;;;25.63;19.45;;;;;;;21.84;82.82;100818.97;5088609;28;20032;-49
2022/08/17 06:40:37;;;;;;;25.30;20.20;;;;;;;21.90;82.37;100825.94;5092979;28;20048;-54
2022/08/17 06:43:42;;;;;;;30.35;20.00;;;;;;;21.79;82.58;100833.06;5090414;28;20040;-54
2022/08/17 06:46:32;;;;;;;24.55;19.52;;;;;;;21.82;82.34;100826.84;5091538;28;20486;-51
2022/08/17 06:49:24;;;;;;;28.40;16.85;;;;;;;21.92;81.94;100827.22;5075916;28;20032;-53
2022/08/17 06:52:09;;;;;;;23.98;18.70;;;;;;;21.99;81.27;100837.75;5092127;28;20040;-51
2022/08/17 06:55:05;;;;;;;21.40;15.15;;;;;;;22.01;80.93;100835.44;5092482;28;20036;-51
2022/08/17 06:57:36;;;;;;;25.60;17.27;;;;;;;22.02;80.77;100834.25;5091323;28;20051;-46
2022/08/17 07:00:12;;;;;;;19.55;16.70;;;;;;;22.02;80.71;100830.69;5069721;28;20403;-50
2022/08/17 07:03:10;;;;;;;29.15;19.13;;;;;;;22.00;80.34;100839.34;5074693;28;20040;-52
2022/08/17 07:05:49;;;;;;;25.60;18.70;;;;;;;21.98;80.31;100841.66;5056952;28;20040;-51
2022/08/17 07:08:34;;;;;;;25.27;19.08;;;;;;;22.00;80.25;100839.34;5072381;28;20351;-53
2022/08/17 07:11:16;;;;;;;24.75;17.73;;;;;;;21.96;80.33;100844.00;5074210;28;20562;-49
2022/08/17 07:13:53;;;;;;;23.60;17.67;;;;;;;21.94;80.15;100839.94;5057885;28;20044;-51
2022/08/17 07:16:39;;;;;;;19.90;17.42;;;;;;;21.96;79.89;100844.00;5091099;28;20043;-50
2022/08/17 07:19:08;;;;;;;23.38;18.35;;;;;;;21.98;79.86;100840.84;5075016;28;20032;-52
2022/08/17 07:22:07;;;;;;;18.98;15.95;;;;;;;21.98;79.60;100841.66;5092748;28;20047;-50
2022/08/17 07:24:58;;;;;;;24.45;17.13;;;;;;;21.96;79.53;100844.00;5076250;28;20044;-47
2022/08/17 07:27:31;;;;;;;27.98;16.60;;;;;;;21.98;79.30;100835.31;5091931;28;20436;-47
2022/08/17 07:30:09;;;;;;;23.20;17.05;;;;;;;21.96;79.53;100843.16;5074140;28;20047;-54
2022/08/17 07:32:50;;;;;;;24.48;17.85;;;;;;;21.97;79.50;100853.13;5074577;28;20445;-51
2022/08/17 07:35:27;;;;;;;24.63;18.65;;;;;;;21.92;79.76;100857.72;5083815;28;20052;-54
2022/08/17 07:38:23;;;;;;;21.77;17.23;;;;;;;21.88;80.07;100856.78;5089734;28;20044;-53
2022/08/17 07:41:03;;;;;;;22.52;17.00;;;;;;;21.89;80.32;100860.38;5074386;28;20032;-54
2022/08/17 07:43:39;;;;;;;22.15;16.63;;;;;;;21.93;80.49;100864.06;5092192;28;20521;-53
2022/08/17 07:49:09;;;;;;;22.08;16.88;;;;;;;21.97;80.15;100876.13;5090535;28;20433;-51
2022/08/17 07:51:42;;;;;;;25.48;17.88;;;;;;;22.01;80.21;100876.25;5091693;28;20040;-51
2022/08/17 07:54:18;;;;;;;20.63;17.05;;;;;;;22.06;79.83;100878.78;5074646;28;20044;-52
2022/08/17 07:57:02;;;;;;;23.70;17.75;;;;;;;22.08;79.70;100877.28;5088619;28;20048;-49
2022/08/17 07:59:36;;;;;;;23.60;17.38;;;;;;;22.09;79.81;100883.66;5091288;28;20044;-49
2022/08/17 08:02:25;;;;;;;23.92;18.20;;;;;;;22.07;79.78;100883.97;5074351;28;20113;-52
2022/08/17 08:05:26;;;;;;;22.00;17.20;;;;;;;22.04;79.47;100895.78;5090366;28;20044;-50
2022/08/17 08:08:35;;;;;;;23.80;18.40;;;;;;;22.07;79.34;100894.28;5090458;28;20093;-51
2022/08/17 08:11:07;;;;;;;21.13;15.77;;;;;;;22.07;79.42;100903.41;5073354;28;20040;-53
2022/08/17 08:13:41;;;;;;;23.17;17.98;;;;;;;22.06;79.22;100899.03;5091730;28;20048;-51
2022/08/17 08:16:24;;;;;;;22.40;17.35;;;;;;;22.03;78.97;100910.81;5075055;28;20032;-48
2022/08/17 08:18:59;;;;;;;20.90;15.98;;;;;;;22.03;79.30;100910.81;5090350;28;20047;-53
2022/08/17 08:21:50;;;;;;;26.45;18.33;;;;;;;22.10;79.28;100899.97;5091626;28;20528;-54
2022/08/17 08:24:41;;;;;;;23.25;19.20;;;;;;;22.09;78.87;100903.88;5074242;28;20521;-54
2022/08/17 08:27:17;;;;;;;27.30;19.50;;;;;;;22.06;79.77;100909.31;5086516;28;20040;-55
2022/08/17 08:29:51;;;;;;;24.92;18.65;;;;;;;22.08;80.23;100893.94;5091572;28;20040;-52
2022/08/17 08:32:53;;;;;;;23.27;18.95;;;;;;;22.02;81.23;100892.53;5074127;28;20119;-54
2022/08/17 08:35:36;;;;;;;25.30;19.88;;;;;;;21.95;83.82;100886.75;5051576;28;20047;-58
2022/08/17 08:38:24;;;;;;;23.17;20.67;;;;;;;21.94;83.11;100889.88;5062681;28;20502;-55
2022/08/17 08:41:11;;;;;;;22.98;19.63;;;;;;;21.88;84.36;100898.41;5090758;28;20038;-56
2022/08/17 08:44:00;;;;;;;24.05;20.02;;;;;;;21.89;84.28;100888.13;5092361;28;20059;-55
2022/08/17 08:47:02;;;;;;;23.58;18.67;;;;;;;21.97;83.39;100892.75;5086423;28;20044;-51
2022/08/17 08:49:32;;;;;;;24.50;20.58;;;;;;;22.10;83.72;100875.00;5094708;28;20032;-56
2022/08/17 08:52:38;;;;;;;29.15;21.45;;;;;;;22.11;81.99;100861.91;5094779;28;20038;-54
2022/08/17 08:55:06;;;;;;;;;;;;;;;22.12;82.02;100861.56;5092662;28;20044;-52
2022/08/17 08:57:49;;;;;;;25.08;21.55;;;;;;;22.09;81.72;100859.47;5094880;28;19920;-52
2022/08/17 09:00:20;;;;;;;22.10;18.05;;;;;;;22.11;81.06;100861.91;5091269;28;20036;-50
2022/08/17 09:03:06;;;;;;;22.55;17.60;;;;;;;22.18;80.92;100856.59;5077163;28;20486;-50
2022/08/17 09:05:36;;;;;;;;;;;;;;;22.27;79.93;100859.28;5095088;28;20044;-53
2022/08/17 09:08:07;;;;;;;21.85;17.92;;;;;;;22.33;80.06;100861.50;5093477;28;19924;-53
2022/08/17 09:10:52;;;;;;;26.02;18.02;;;;;;;22.40;79.53;100862.88;5093038;28;20048;-50
2022/08/17 09:13:29;;;;;;;20.15;16.45;;;;;;;22.49;78.81;100858.03;5078724;28;20048;-57
2022/08/17 09:16:03;;;;;;;23.52;18.88;;;;;;;22.59;78.48;100853.97;5080949;28;20036;-53
2022/08/17 09:18:32;;;;;;;24.55;18.35;;;;;;;22.67;78.61;100861.34;5095536;28;20047;-52
2022/08/17 09:21:27;;;;;;;23.65;18.23;;;;;;;22.72;77.71;100872.22;5078750;28;20052;-56
2022/08/17 09:24:11;;;;;;;20.35;17.80;;;;;;;22.74;77.31;100872.69;5077098;28;20040;-52
2022/08/17 09:26:47;;;;;;;26.42;21.80;;;;;;;22.77;77.37;100889.44;5078307;28;20040;-54
2022/08/17 09:29:16;;;;;;;28.20;21.58;;;;;;;22.81;76.63;100891.56;5093396;28;20040;-54
2022/08/17 09:31:55;;;;;;;23.98;21.40;;;;;;;22.82;76.51;100899.53;5075005;28;20044;-51
2022/08/17 09:34:39;;;;;;;25.98;22.30;;;;;;;22.84;76.23;100893.63;5092860;28;20402;-50
2022/08/17 09:37:26;;;;;;;27.77;18.38;;;;;;;22.85;76.55;100895.22;5060258;28;20530;-53
2022/08/17 09:40:09;;;;;;;26.13;20.40;;;;;;;22.88;76.85;100900.09;5091062;28;20433;-52
2022/08/17 09:42:49;;;;;;;27.60;21.35;;;;;;;22.89;76.58;100896.16;5093903;28;20444;-53
2022/08/17 09:45:30;;;;;;;30.65;24.08;;;;;;;22.88;76.46;100903.69;5094145;28;20043;-55
2022/08/17 09:48:16;;;;;;;26.65;22.73;;;;;;;22.85;76.85;100904.41;5075942;28;20088;-54
2022/08/17 09:51:05;;;;;;;28.83;22.52;;;;;;;22.81;77.37;100909.03;5077161;28;20032;-54
2022/08/17 09:53:38;;;;;;;27.98;20.83;;;;;;;22.81;77.20;100928.47;5078529;28;20032;-50
2022/08/17 09:56:30;;;;;;;28.33;22.27;;;;;;;22.81;77.27;100939.59;5075724;28;20040;-53
2022/08/17 09:59:24;;;;;;;30.55;24.60;;;;;;;22.82;77.27;100949.53;5092207;28;20043;-51
2022/08/17 10:02:27;;;;;;;26.27;20.33;;;;;;;22.81;77.19;100956.25;5060778;28;20058;-51
2022/08/17 10:05:20;;;;;;;23.27;20.77;;;;;;;22.80;77.33;100962.97;5076554;28;20063;-52
2022/08/17 10:07:59;;;;;;;29.45;23.75;;;;;;;22.80;77.44;100976.88;5091623;28;20507;-51
2022/08/17 10:10:41;;;;;;;22.08;18.80;;;;;;;22.77;77.46;100977.53;5077183;28;20044;-55
2022/08/17 10:13:41;;;;;;;22.65;18.33;;;;;;;22.79;77.10;100983.56;5086758;28;20077;-55
2022/08/17 10:16:37;;;;;;;24.13;19.02;;;;;;;22.80;77.72;100965.75;5077167;28;20048;-55
2022/08/17 10:19:24;;;;;;;28.25;23.23;;;;;;;22.79;78.85;100969.69;5076022;28;20028;-51
2022/08/17 10:27:55;;;;;;;29.48;22.52;;;;;;;22.74;82.47;100983.81;5084733;28;20194;-55
2022/08/17 10:30:26;;;;;;;34.90;24.75;;;;;;;22.71;83.90;100990.06;5096509;28;20036;-56
2022/08/17 10:32:59;;;;;;;27.63;23.33;;;;;;;22.64;83.90;100989.81;5084583;28;20043;-53
2022/08/17 10:35:57;;;;;;;27.08;20.83;;;;;;;22.59;84.40;100987.28;5058383;28;20509;-57
2022/08/17 10:38:38;;;;;;;27.70;22.13;;;;;;;22.59;84.91;100987.28;5080675;28;20040;-51
2022/08/17 10:41:30;;;;;;;24.85;20.42;;;;;;;22.59;85.73;100984.50;5075142;28;20047;-54
2022/08/17 10:44:07;;;;;;;28.10;21.92;;;;;;;22.57;86.43;100984.03;5076206;28;20051;-51
2022/08/17 10:47:11;;;;;;;29.23;24.58;;;;;;;22.52;87.55;100982.28;5091658;28;20036;-53
2022/08/17 10:49:46;;;;;;;27.73;24.40;;;;;;;22.45;88.88;100979.28;5091792;28;20498;-55
2022/08/17 10:52:26;;;;;;;31.87;24.07;;;;;;;22.37;89.18;100969.91;5057847;28;20077;-54
2022/08/17 10:54:55;;;;;;;32.00;26.35;;;;;;;22.32;90.69;100962.59;5075105;28;20290;-49
2022/08/17 10:57:28;;;;;;;27.50;24.55;;;;;;;22.29;91.36;100962.47;5078502;28;20040;-53
2022/08/17 10:59:59;;;;;;;27.88;24.70;;;;;;;22.26;91.61;100957.59;5075926;28;20028;-52
2022/08/17 11:02:52;;;;;;;26.70;23.80;;;;;;;22.22;92.10;100954.69;5074640;28;20459;-52
2022/08/17 11:05:23;;;;;;;31.48;24.58;;;;;;;22.18;92.67;100950.16;5089079;28;20043;-52
2022/08/17 11:08:15;;;;;;;30.33;25.08;;;;;;;22.14;93.90;100950.03;5091732;28;20040;-55
2022/08/17 11:11:10;;;;;;;29.92;25.95;;;;;;;22.13;95.20;100949.22;5092212;28;20032;-54
2022/08/17 11:13:50;;;;;;;32.35;27.20;;;;;;;22.10;95.94;100941.59;5073119;28;20024;-52
2022/08/17 11:16:55;;;;;;;33.15;27.25;;;;;;;22.08;95.93;100938.34;5091472;28;20483;-53
2022/08/17 11:20:08;;;;;;;33.00;26.48;;;;;;;21.97;96.33;100934.38;5080590;28;20104;-52
2022/08/17 11:22:38;;;;;;;29.30;24.42;;;;;;;21.92;98.20;100937.38;5069230;28;20426;-52
2022/08/17 11:25:18;;;;;;;30.58;25.13;;;;;;;21.89;98.03;100938.88;5091730;28;20506;-52
2022/08/17 11:27:52;;;;;;;31.67;26.52;;;;;;;21.90;98.65;100937.69;5092016;28;20510;-53
2022/08/17 11:30:40;;;;;;;30.48;26.88;;;;;;;21.86;98.37;100939.56;5091042;28;20044;-47
2022/08/17 11:33:40;;;;;;;30.42;24.85;;;;;;;21.89;98.91;100954.72;5062635;28;20036;-52
2022/08/17 11:36:30;;;;;;;31.00;24.05;;;;;;;21.91;98.27;100952.38;4983562;28;20103;-50
2022/08/17 11:39:15;;;;;;;29.73;25.35;;;;;;;21.98;97.86;100963.72;5045428;28;20098;-50
2022/08/17 11:42:15;;;;;;;26.83;23.42;;;;;;;22.01;98.28;100963.06;5040903;28;20045;-54
2022/08/17 11:44:45;;;;;;;31.02;27.00;;;;;;;21.93;98.10;100961.19;5051176;28;20029;-53
2022/08/17 11:53:58;;;;;;;34.10;30.52;;;;;;;21.88;98.97;100981.63;5060208;28;20045;-52
2022/08/17 11:56:49;;;;;;;32.63;29.17;;;;;;;21.90;99.12;100978.50;5048705;28;20389;-55
2022/08/17 11:59:32;;;;;;;34.25;28.77;;;;;;;21.86;98.84;100988.66;5030367;28;20033;-55
2022/08/17 12:02:03;;;;;;;33.40;29.73;;;;;;;21.78;99.97;100997.88;5049582;28;20045;-54
2022/08/17 12:04:33;;;;;;;32.90;28.75;;;;;;;21.71;99.98;101001.19;5033528;28;20041;-53
2022/08/17 12:07:15;;;;;;;31.30;27.48;;;;;;;21.70;99.59;101003.16;5050312;28;20430;-52
2022/08/17 12:09:46;;;;;;;33.03;28.23;;;;;;;21.72;99.91;101010.31;5051611;28;20457;-53
2022/08/17 12:12:21;;;;;;;31.42;28.05;;;;;;;21.78;100.00;101017.31;5048585;28;20037;-55
2022/08/17 12:14:56;;;;;;;30.00;26.48;;;;;;;21.82;100.00;101026.56;5034499;28;20041;-52
2022/08/17 12:17:39;;;;;;;28.42;25.05;;;;;;;21.88;100.00;101037.09;5023641;28;20037;-49
2022/08/17 12:20:36;;;;;;;31.80;26.48;;;;;;;21.95;100.00;101032.97;5052446;28;20044;-51
2022/08/17 12:23:28;;;;;;;29.98;26.55;;;;;;;21.94;99.92;101039.69;5055541;28;20049;-50
2022/08/17 12:26:19;;;;;;;29.67;26.13;;;;;;;21.93;99.97;101038.84;5054539;28;20404;-50